createdAt,value
2022-10-19T00:00:42.116Z,85.5
2022-10-19T00:31:45.244Z,86
2022-10-19T01:02:48.417Z,84
2022-10-19T01:25:59.244Z,83.5
2022-10-19T01:57:02.510Z,83
2022-10-19T02:04:54.937Z,82.5
2022-10-19T02:27:59.255Z,82.5
2022-10-19T02:59:15.848Z,82.5
2022-10-19T03:38:05.082Z,82
2022-10-19T04:08:55.307Z,82.5
2022-10-19T04:24:27.035Z,82.5
2022-10-19T04:47:57.814Z,83.5
2022-10-19T05:18:54.676Z,82.5
2022-10-19T05:57:37.413Z,84
2022-10-19T06:28:40.862Z,83
2022-10-19T06:59:50.900Z,81.5
2022-10-19T07:23:14.924Z,80.5
2022-10-19T07:46:25.698Z,80.5
2022-10-19T08:01:50.621Z,79
2022-10-19T08:25:07.689Z,74.5
2022-10-19T08:40:39.058Z,73.5
2022-10-19T09:19:40.608Z,75.5
2022-10-19T09:42:50.971Z,73.5
2022-10-19T10:06:07.800Z,69
2022-10-19T10:37:03.591Z,70
2022-10-19T11:08:06.037Z,69.5
2022-10-19T11:31:29.461Z,68.5
2022-10-19T12:10:10.675Z,60
2022-10-19T12:41:19.358Z,54.5
2022-10-19T13:04:29.086Z,48.5
2022-10-19T13:27:45.232Z,49.5
2022-10-19T13:58:46.601Z,53
2022-10-19T14:30:00.418Z,38.5
2022-10-19T14:53:02.819Z,33
2022-10-19T15:32:02.984Z,55.5
2022-10-19T15:55:19.263Z,57.5
2022-10-19T16:10:50.295Z,66
2022-10-19T16:49:38.340Z,79.5
2022-10-19T17:12:55.359Z,85
2022-10-19T17:28:20.150Z,87
2022-10-19T17:59:16.413Z,91.5
2022-10-19T18:30:32.520Z,91
2022-10-19T18:46:03.984Z,90.5
2022-10-19T19:09:14.621Z,90.5
2022-10-19T19:40:11.099Z,93.5
2022-10-19T19:55:55.873Z,94.5
2022-10-19T20:26:59.106Z,93
2022-10-19T20:50:16.390Z,85.5
2022-10-19T21:21:12.784Z,84
2022-10-19T21:52:09.190Z,84.5
2022-10-19T22:15:39.605Z,85.5
2022-10-19T22:31:11.082Z,85.5
2022-10-19T23:02:07.401Z,84.5
2022-10-19T23:40:56.096Z,85
2022-10-19T23:56:34.173Z,84.5
